createdAt,value
2023-05-20T00:00:11.167Z,4.22
2023-05-20T00:02:38.831Z,4.18
2023-05-20T00:05:06.401Z,4.68
2023-05-20T00:07:34.184Z,4.18
2023-05-20T00:10:01.280Z,3.92
2023-05-20T00:12:28.183Z,4.68
2023-05-20T00:14:56.324Z,4.25
2023-05-20T00:17:25.914Z,4.00
2023-05-20T00:19:53.343Z,3.83
2023-05-20T00:22:20.823Z,4.20
2023-05-20T00:24:47.827Z,4.93
2023-05-20T00:27:14.768Z,4.30
2023-05-20T00:29:41.745Z,4.72
2023-05-20T00:32:08.872Z,4.50
2023-05-20T00:34:36.391Z,5.18
2023-05-20T00:37:03.399Z,5.30
2023-05-20T00:39:30.581Z,4.40
2023-05-20T00:42:00.667Z,4.60
2023-05-20T00:44:28.253Z,4.50
2023-05-20T00:46:56.175Z,4.78
2023-05-20T00:49:23.880Z,4.88
2023-05-20T00:51:51.854Z,4.40
2023-05-20T00:54:19.635Z,4.25
2023-05-20T00:56:47.634Z,4.68
2023-05-20T00:59:14.880Z,4.38
2023-05-20T01:01:42.372Z,4.60
2023-05-20T01:04:09.809Z,4.50
2023-05-20T01:06:38.172Z,4.30
2023-05-20T01:09:05.315Z,4.88
2023-05-20T01:11:47.732Z,4.93
2023-05-20T01:14:16.721Z,4.15
2023-05-20T01:16:44.472Z,4.18
2023-05-20T01:19:35.338Z,4.53
2023-05-20T01:22:08.414Z,4.65
2023-05-20T01:24:36.891Z,4.80
2023-05-20T01:27:04.098Z,4.63
2023-05-20T01:29:32.952Z,5.15
2023-05-20T01:32:01.684Z,5.22
2023-05-20T01:34:28.811Z,5.25
2023-05-20T01:36:57.709Z,5.65
2023-05-20T01:39:26.392Z,5.00
2023-05-20T01:41:54.825Z,5.30
2023-05-20T01:44:22.905Z,5.22
2023-05-20T01:46:51.197Z,5.68
2023-05-20T01:49:18.740Z,5.00
2023-05-20T01:51:47.178Z,5.03
2023-05-20T01:54:14.166Z,5.13
2023-05-20T01:56:42.586Z,5.05
2023-05-20T01:59:09.927Z,5.35
2023-05-20T02:01:37.085Z,5.47
2023-05-20T02:04:04.647Z,5.30
2023-05-20T02:06:31.761Z,5.38
2023-05-20T02:08:58.846Z,5.32
2023-05-20T02:11:26.576Z,5.47
2023-05-20T02:13:54.899Z,5.32
2023-05-20T02:16:22.916Z,5.80
2023-05-20T02:18:53.152Z,5.88
2023-05-20T02:21:20.218Z,5.72
2023-05-20T02:23:47.389Z,6.38
2023-05-20T02:26:14.412Z,5.95
2023-05-20T02:28:46.621Z,5.47
2023-05-20T02:31:14.176Z,5.35
2023-05-20T02:33:41.609Z,5.15
2023-05-20T02:36:08.842Z,5.45
2023-05-20T02:38:36.151Z,5.10
2023-05-20T02:41:04.676Z,5.35
2023-05-20T02:43:33.270Z,5.72
2023-05-20T02:46:02.899Z,5.72
2023-05-20T02:48:29.904Z,6.28
2023-05-20T02:50:57.211Z,5.70
2023-05-20T02:53:24.293Z,5.80
2023-05-20T02:55:51.677Z,5.88
2023-05-20T02:58:18.820Z,6.55
2023-05-20T03:00:46.032Z,6.47
2023-05-20T03:03:13.738Z,6.30
2023-05-20T03:05:42.760Z,6.45
2023-05-20T03:08:11.077Z,6.32
2023-05-20T03:10:39.465Z,7.00
2023-05-20T03:13:09.099Z,7.05
2023-05-20T03:15:38.685Z,7.40
2023-05-20T03:18:07.291Z,7.28
2023-05-20T03:20:38.544Z,6.78
2023-05-20T03:23:07.485Z,6.50
2023-05-20T03:25:37.277Z,6.70
2023-05-20T03:28:04.832Z,7.13
2023-05-20T03:30:32.201Z,7.60
2023-05-20T03:32:59.671Z,7.22
2023-05-20T03:35:27.343Z,7.07
2023-05-20T03:37:55.180Z,7.70
2023-05-20T03:40:24.345Z,8.13
2023-05-20T03:42:52.257Z,8.32
2023-05-20T03:45:21.408Z,8.20
2023-05-20T03:47:57.935Z,8.30
2023-05-20T03:50:25.385Z,8.20
2023-05-20T03:52:52.528Z,8.52
2023-05-20T03:55:22.396Z,8.50
2023-05-20T03:57:49.366Z,8.32
2023-05-20T04:00:17.114Z,8.52
2023-05-20T04:02:44.174Z,8.63
2023-05-20T04:05:14.177Z,8.45
2023-05-20T04:07:42.317Z,8.85
2023-05-20T04:10:10.412Z,9.00
2023-05-20T04:12:41.541Z,8.10
2023-05-20T04:15:10.751Z,10.10
2023-05-20T04:17:48.697Z,9.38
2023-05-20T04:20:17.471Z,9.48
2023-05-20T04:22:48.705Z,8.98
2023-05-20T04:25:16.956Z,9.50
2023-05-20T04:27:44.168Z,9.02
2023-05-20T04:30:11.994Z,9.23
2023-05-20T04:32:41.768Z,9.23
2023-05-20T04:35:12.188Z,9.05
2023-05-20T04:37:53.238Z,9.38
2023-05-20T04:40:21.305Z,10.27
2023-05-20T04:42:48.400Z,11.18
2023-05-20T04:45:16.017Z,10.50
2023-05-20T04:47:44.546Z,10.25
2023-05-20T04:50:13.685Z,10.05
2023-05-20T04:52:43.261Z,10.52
2023-05-20T04:55:12.922Z,10.95
2023-05-20T04:57:42.209Z,9.20
2023-05-20T05:00:11.456Z,10.25
2023-05-20T05:02:39.962Z,11.40
2023-05-20T05:05:07.720Z,11.43
2023-05-20T05:07:35.273Z,11.75
2023-05-20T05:10:02.464Z,10.80
2023-05-20T05:12:31.069Z,11.32
2023-05-20T05:14:59.375Z,9.82
2023-05-20T05:17:29.147Z,12.05
2023-05-20T05:19:58.789Z,11.00
2023-05-20T05:22:27.956Z,11.27
2023-05-20T05:24:56.388Z,11.10
2023-05-20T05:27:23.551Z,10.55
2023-05-20T05:29:50.755Z,12.07
2023-05-20T05:32:18.941Z,12.75
2023-05-20T05:34:46.019Z,13.13
2023-05-20T05:37:13.042Z,12.02
2023-05-20T05:39:40.139Z,11.68
2023-05-20T05:42:08.242Z,11.77
2023-05-20T05:44:35.787Z,12.10
2023-05-20T05:47:07.603Z,14.18
2023-05-20T05:49:35.220Z,12.80
2023-05-20T05:52:03.255Z,13.10
2023-05-20T05:54:30.488Z,12.57
2023-05-20T05:56:57.661Z,12.52
2023-05-20T05:59:26.450Z,11.90
2023-05-20T06:01:53.764Z,13.23
2023-05-20T06:04:21.060Z,14.27
2023-05-20T06:06:49.551Z,13.77
2023-05-20T06:09:16.814Z,12.63
2023-05-20T06:11:44.568Z,13.27
2023-05-20T06:14:12.502Z,12.07
2023-05-20T06:16:40.249Z,13.15
2023-05-20T06:19:09.487Z,13.18
2023-05-20T06:21:37.083Z,12.82
2023-05-20T06:24:05.034Z,14.63
2023-05-20T06:26:33.025Z,13.23
2023-05-20T06:29:00.552Z,13.95
2023-05-20T06:31:27.823Z,13.43
2023-05-20T06:33:55.262Z,13.93
2023-05-20T06:36:22.464Z,13.00
2023-05-20T06:38:49.619Z,12.57
2023-05-20T06:41:17.175Z,12.95
2023-05-20T06:43:44.328Z,13.50
2023-05-20T06:46:31.349Z,13.57
2023-05-20T06:49:05.644Z,11.25
2023-05-20T06:51:33.343Z,12.68
2023-05-20T06:54:01.310Z,13.02
2023-05-20T06:56:28.379Z,15.57
2023-05-20T06:58:56.020Z,14.25
2023-05-20T07:01:23.266Z,14.77
2023-05-20T07:03:52.312Z,12.40
2023-05-20T07:06:19.842Z,15.80
2023-05-20T07:08:47.033Z,14.05
2023-05-20T07:11:14.517Z,15.18
2023-05-20T07:13:41.690Z,15.35
2023-05-20T07:16:09.808Z,13.52
2023-05-20T07:18:39.880Z,14.48
2023-05-20T07:21:07.090Z,15.18
2023-05-20T07:23:46.472Z,14.68
2023-05-20T07:26:20.349Z,13.90
2023-05-20T07:28:49.016Z,13.75
2023-05-20T07:31:17.110Z,14.60
2023-05-20T07:33:47.561Z,14.77
2023-05-20T07:36:15.018Z,13.77
2023-05-20T07:39:00.584Z,14.23
2023-05-20T07:43:59.634Z,14.02
2023-05-20T07:46:26.767Z,12.40
2023-05-20T07:48:54.105Z,14.35
2023-05-20T07:51:21.612Z,14.48
2023-05-20T07:53:49.016Z,13.63
2023-05-20T07:56:17.678Z,13.35
2023-05-20T07:58:55.637Z,13.13
2023-05-20T08:01:25.304Z,13.30
2023-05-20T08:03:53.019Z,12.80
2023-05-20T08:06:22.395Z,13.02
2023-05-20T08:08:50.396Z,13.60
2023-05-20T08:11:22.673Z,12.98
2023-05-20T08:13:50.817Z,13.88
2023-05-20T08:16:18.218Z,13.85
2023-05-20T08:18:46.119Z,13.15
2023-05-20T08:21:14.210Z,12.68
2023-05-20T08:23:41.563Z,14.45
2023-05-20T08:26:08.678Z,13.82
2023-05-20T08:28:39.937Z,12.35
2023-05-20T08:31:07.747Z,13.30
2023-05-20T08:33:36.932Z,13.45
2023-05-20T08:36:04.280Z,13.27
2023-05-20T08:38:31.256Z,11.68
2023-05-20T08:40:58.350Z,11.85
2023-05-20T08:43:26.720Z,13.25
2023-05-20T08:45:55.045Z,13.35
2023-05-20T08:48:27.901Z,13.75
2023-05-20T08:50:57.911Z,13.43
2023-05-20T08:53:26.713Z,14.45
2023-05-20T08:56:00.989Z,14.70
2023-05-20T08:58:30.092Z,13.50
2023-05-20T09:00:59.010Z,15.07
2023-05-20T09:03:26.446Z,13.20
2023-05-20T09:05:54.433Z,14.38
2023-05-20T09:08:28.446Z,13.13
2023-05-20T09:10:56.002Z,14.13
2023-05-20T09:13:24.610Z,13.88
2023-05-20T09:15:51.713Z,14.68
2023-05-20T09:18:18.861Z,14.65
2023-05-20T09:20:48.443Z,13.57
2023-05-20T09:23:15.495Z,15.73
2023-05-20T09:25:42.446Z,14.07
2023-05-20T09:28:09.867Z,13.85
2023-05-20T09:30:36.904Z,13.50
2023-05-20T09:33:05.532Z,12.75
2023-05-20T09:35:39.327Z,14.20
2023-05-20T09:38:10.222Z,14.45
2023-05-20T09:40:41.256Z,13.88
2023-05-20T09:43:08.583Z,13.60
2023-05-20T09:45:36.086Z,13.43
2023-05-20T09:48:05.964Z,13.57
2023-05-20T09:50:33.340Z,13.50
2023-05-20T09:53:03.885Z,13.52
2023-05-20T09:55:31.390Z,13.35
2023-05-20T09:58:02.429Z,13.85
2023-05-20T10:00:32.635Z,13.25
2023-05-20T10:03:00.080Z,12.80
2023-05-20T10:05:33.509Z,14.15
2023-05-20T10:08:12.674Z,12.48
2023-05-20T10:11:14.849Z,12.90
2023-05-20T10:14:00.041Z,14.30
2023-05-20T10:16:52.973Z,13.70
2023-05-20T10:19:33.774Z,13.07
2023-05-20T10:22:03.901Z,13.10
2023-05-20T10:24:41.610Z,13.45
2023-05-20T10:27:10.706Z,12.27
2023-05-20T10:29:56.082Z,12.50
2023-05-20T10:32:31.548Z,12.20
2023-05-20T10:35:09.410Z,13.30
2023-05-20T10:37:46.301Z,11.77
2023-05-20T10:40:15.311Z,12.45
2023-05-20T10:42:43.250Z,12.15
2023-05-20T10:45:10.956Z,13.20
2023-05-20T10:47:53.970Z,11.10
2023-05-20T10:50:36.241Z,11.98
2023-05-20T10:53:13.318Z,11.80
2023-05-20T10:55:55.156Z,11.85
2023-05-20T10:58:24.422Z,11.82
2023-05-20T11:00:55.262Z,11.68
2023-05-20T11:03:23.354Z,12.65
2023-05-20T11:05:51.307Z,12.02
2023-05-20T11:08:27.851Z,12.35
2023-05-20T11:10:59.795Z,12.18
2023-05-20T11:13:27.345Z,11.93
2023-05-20T11:15:55.600Z,11.38
2023-05-20T11:18:22.723Z,10.35
2023-05-20T11:20:49.857Z,11.15
2023-05-20T11:23:16.867Z,10.95
2023-05-20T11:25:43.906Z,10.77
2023-05-20T11:28:15.746Z,10.80
2023-05-20T11:30:43.894Z,11.07
2023-05-20T11:33:15.883Z,11.85
2023-05-20T11:35:54.026Z,11.32
2023-05-20T11:38:22.853Z,10.43
2023-05-20T11:40:55.747Z,11.50
2023-05-20T11:43:23.811Z,10.50
2023-05-20T11:45:56.351Z,10.20
2023-05-20T11:48:25.234Z,11.07
2023-05-20T11:50:54.865Z,11.20
2023-05-20T11:53:24.033Z,10.13
2023-05-20T11:55:59.353Z,10.73
2023-05-20T12:01:01.889Z,10.75
2023-05-20T12:03:37.516Z,9.75
2023-05-20T12:06:04.899Z,11.02
2023-05-20T12:08:32.012Z,9.23
2023-05-20T12:11:00.129Z,9.57
2023-05-20T12:13:27.228Z,9.85
2023-05-20T12:15:54.604Z,9.75
2023-05-20T12:18:22.850Z,9.70
2023-05-20T12:20:49.852Z,10.02
2023-05-20T12:23:16.946Z,9.38
2023-05-20T12:25:47.460Z,8.90
2023-05-20T12:28:14.818Z,9.18
2023-05-20T12:30:42.246Z,8.63
2023-05-20T12:33:09.572Z,8.27
2023-05-20T12:35:39.397Z,8.25
2023-05-20T12:38:07.987Z,8.52
2023-05-20T12:40:36.509Z,7.55
2023-05-20T12:43:06.139Z,8.93
2023-05-20T12:45:33.701Z,8.02
2023-05-20T12:48:01.139Z,7.57
2023-05-20T12:50:28.445Z,8.70
2023-05-20T12:52:55.634Z,7.75
2023-05-20T12:55:22.967Z,8.00
2023-05-20T12:57:50.567Z,8.07
2023-05-20T13:00:18.113Z,7.97
2023-05-20T13:02:45.285Z,8.00
2023-05-20T13:05:13.396Z,7.70
2023-05-20T13:07:40.595Z,7.80
2023-05-20T13:10:08.372Z,7.60
2023-05-20T13:12:36.255Z,8.20
2023-05-20T13:15:04.424Z,8.05
2023-05-20T13:17:33.063Z,7.13
2023-05-20T13:20:00.270Z,7.55
2023-05-20T13:22:27.453Z,7.65
2023-05-20T13:24:54.589Z,7.32
2023-05-20T13:27:22.205Z,7.63
2023-05-20T13:29:49.468Z,7.32
2023-05-20T13:32:17.241Z,6.70
2023-05-20T13:34:44.583Z,7.05
2023-05-20T13:37:12.119Z,7.47
2023-05-20T13:39:39.164Z,6.70
2023-05-20T13:42:07.241Z,7.45
2023-05-20T13:44:35.244Z,6.95
2023-05-20T13:47:02.878Z,7.25
2023-05-20T13:49:30.021Z,6.95
2023-05-20T13:51:57.033Z,7.47
2023-05-20T13:54:25.681Z,7.65
2023-05-20T13:56:53.314Z,7.03
2023-05-20T13:59:20.597Z,7.30
2023-05-20T14:01:47.609Z,7.20
2023-05-20T14:04:14.641Z,7.78
2023-05-20T14:06:41.876Z,7.93
2023-05-20T14:09:09.422Z,7.07
2023-05-20T14:11:36.820Z,7.45
2023-05-20T14:14:04.150Z,7.75
2023-05-20T14:16:31.983Z,8.45
2023-05-20T14:18:59.276Z,8.35
2023-05-20T14:21:26.315Z,8.13
2023-05-20T14:23:53.401Z,7.93
2023-05-20T14:26:21.618Z,8.15
2023-05-20T14:28:48.638Z,8.30
2023-05-20T14:31:16.096Z,9.10
2023-05-20T14:33:43.194Z,9.70
2023-05-20T14:36:11.356Z,8.57
2023-05-20T14:38:38.611Z,8.75
2023-05-20T14:41:05.781Z,8.57
2023-05-20T14:43:33.029Z,8.85
2023-05-20T14:46:00.558Z,8.85
2023-05-20T14:48:27.675Z,9.25
2023-05-20T14:50:54.999Z,9.15
2023-05-20T14:53:23.022Z,9.68
2023-05-20T14:55:50.291Z,9.25
2023-05-20T14:58:21.407Z,8.52
2023-05-20T15:00:48.612Z,9.40
2023-05-20T15:03:15.906Z,9.65
2023-05-20T15:05:43.243Z,9.70
2023-05-20T15:08:10.279Z,10.82
2023-05-20T15:10:37.588Z,9.93
2023-05-20T15:13:04.932Z,9.90
2023-05-20T15:15:31.967Z,9.80
2023-05-20T15:17:59.352Z,10.90
2023-05-20T15:20:26.579Z,9.93
2023-05-20T15:22:54.324Z,10.85
2023-05-20T15:25:21.432Z,9.32
2023-05-20T15:27:48.469Z,10.10
2023-05-20T15:30:15.849Z,10.32
2023-05-20T15:32:43.115Z,10.48
2023-05-20T15:35:10.638Z,10.60
2023-05-20T15:37:37.756Z,10.57
2023-05-20T15:40:05.205Z,10.10
2023-05-20T15:42:32.458Z,10.40
2023-05-20T15:44:59.589Z,10.73
2023-05-20T15:47:26.700Z,11.25
2023-05-20T15:49:54.651Z,10.52
2023-05-20T15:52:21.671Z,10.40
2023-05-20T15:54:48.719Z,11.45
2023-05-20T15:57:16.014Z,11.15
2023-05-20T15:59:43.357Z,10.52
2023-05-20T16:02:10.601Z,10.07
2023-05-20T16:04:37.772Z,10.93
2023-05-20T16:07:05.016Z,11.35
2023-05-20T16:09:32.193Z,11.38
2023-05-20T16:11:59.216Z,11.18
2023-05-20T16:14:26.356Z,11.25
2023-05-20T16:16:53.825Z,11.50
2023-05-20T16:19:20.897Z,11.55
2023-05-20T16:21:47.961Z,12.63
2023-05-20T16:24:15.756Z,12.45
2023-05-20T16:26:43.017Z,12.30
2023-05-20T16:29:09.999Z,12.80
2023-05-20T16:31:37.126Z,13.27
2023-05-20T16:34:04.609Z,12.82
2023-05-20T16:36:32.110Z,12.38
2023-05-20T16:38:59.056Z,13.20
2023-05-20T16:41:26.392Z,12.77
2023-05-20T16:43:53.628Z,11.95
2023-05-20T16:46:21.118Z,12.25
2023-05-20T16:48:49.504Z,12.85
2023-05-20T16:51:17.152Z,12.45
2023-05-20T16:53:44.222Z,12.25
2023-05-20T16:56:12.266Z,12.57
2023-05-20T16:58:39.275Z,12.23
2023-05-20T17:01:06.856Z,13.45
2023-05-20T17:03:35.688Z,12.00
2023-05-20T17:06:02.804Z,11.95
2023-05-20T17:08:29.995Z,12.23
2023-05-20T17:10:59.258Z,12.80
2023-05-20T17:13:26.819Z,12.95
2023-05-20T17:15:54.579Z,12.65
2023-05-20T17:18:23.084Z,13.55
2023-05-20T17:20:50.118Z,12.45
2023-05-20T17:23:17.133Z,13.23
2023-05-20T17:25:44.316Z,12.60
2023-05-20T17:28:11.370Z,12.43
2023-05-20T17:30:38.381Z,13.80
2023-05-20T17:33:05.631Z,12.55
2023-05-20T17:35:32.758Z,12.52
2023-05-20T17:37:59.827Z,13.00
2023-05-20T17:40:26.933Z,12.20
2023-05-20T17:42:53.992Z,13.20
2023-05-20T17:45:21.121Z,12.07
2023-05-20T17:47:48.672Z,12.88
2023-05-20T17:50:16.712Z,12.18
2023-05-20T17:52:43.901Z,12.25
2023-05-20T17:55:11.052Z,11.98
2023-05-20T17:57:38.080Z,12.77
2023-05-20T18:00:06.595Z,18.10
2023-05-20T18:02:33.714Z,14.25
2023-05-20T18:05:00.791Z,12.65
2023-05-20T18:07:27.849Z,13.15
2023-05-20T18:09:55.378Z,13.50
2023-05-20T18:12:22.558Z,12.88
2023-05-20T18:14:49.536Z,12.75
2023-05-20T18:17:16.774Z,14.13
2023-05-20T18:19:43.782Z,13.27
2023-05-20T18:22:11.032Z,14.00
2023-05-20T18:24:38.008Z,13.90
2023-05-20T18:27:05.688Z,14.15
2023-05-20T18:29:32.927Z,14.57
2023-05-20T18:32:00.084Z,14.23
2023-05-20T18:34:27.340Z,14.13
2023-05-20T18:36:54.573Z,14.20
2023-05-20T18:39:21.745Z,14.30
2023-05-20T18:41:49.241Z,14.40
2023-05-20T18:44:17.372Z,14.02
2023-05-20T18:46:45.191Z,13.77
2023-05-20T18:49:13.621Z,15.23
2023-05-20T18:51:41.181Z,14.75
2023-05-20T18:54:09.268Z,14.95
2023-05-20T18:56:36.537Z,12.90
2023-05-20T18:59:03.620Z,13.77
2023-05-20T19:01:31.326Z,13.27
2023-05-20T19:03:58.669Z,13.90
2023-05-20T19:06:25.940Z,13.43
2023-05-20T19:08:54.038Z,14.27
2023-05-20T19:11:21.685Z,13.65
2023-05-20T19:13:48.793Z,13.23
2023-05-20T19:16:15.978Z,14.13
2023-05-20T19:18:43.232Z,13.07
2023-05-20T19:21:10.759Z,13.65
2023-05-20T19:23:37.764Z,13.70
2023-05-20T19:26:04.964Z,12.88
2023-05-20T19:28:32.076Z,12.73
2023-05-20T19:31:00.189Z,12.60
2023-05-20T19:33:27.456Z,12.00
2023-05-20T19:35:54.533Z,11.20
2023-05-20T19:38:21.686Z,12.18
2023-05-20T19:40:48.754Z,11.45
2023-05-20T19:43:16.011Z,11.13
2023-05-20T19:45:43.460Z,10.88
2023-05-20T19:48:10.941Z,11.40
2023-05-20T19:50:38.145Z,9.85
2023-05-20T19:53:07.466Z,10.05
2023-05-20T19:55:36.415Z,11.40
2023-05-20T19:58:03.925Z,10.20
2023-05-20T20:00:31.126Z,9.98
2023-05-20T20:02:59.526Z,10.45
2023-05-20T20:05:27.041Z,10.27
2023-05-20T20:07:54.197Z,11.30
2023-05-20T20:10:21.728Z,10.50
2023-05-20T20:12:49.872Z,11.63
2023-05-20T20:15:17.523Z,11.00
2023-05-20T20:17:45.997Z,10.20
2023-05-20T20:20:14.426Z,12.05
2023-05-20T20:22:42.295Z,11.68
2023-05-20T20:25:09.551Z,10.95
2023-05-20T20:27:36.520Z,11.70
2023-05-20T20:30:05.436Z,11.30
2023-05-20T20:32:32.493Z,13.02
2023-05-20T20:34:59.677Z,12.90
2023-05-20T20:37:27.476Z,12.02
2023-05-20T20:39:55.326Z,12.60
2023-05-20T20:42:22.993Z,12.77
2023-05-20T20:44:53.150Z,11.70
2023-05-20T20:47:20.312Z,12.50
2023-05-20T20:49:47.728Z,12.45
2023-05-20T20:52:15.385Z,12.45
2023-05-20T20:54:43.880Z,12.57
2023-05-20T20:57:11.671Z,12.18
2023-05-20T20:59:39.941Z,12.88
2023-05-20T21:02:07.179Z,13.00
2023-05-20T21:04:34.364Z,12.90
2023-05-20T21:07:02.840Z,13.77
2023-05-20T21:09:31.550Z,12.70
2023-05-20T21:12:01.156Z,13.15
2023-05-20T21:14:28.298Z,12.70
2023-05-20T21:16:57.300Z,12.05
2023-05-20T21:19:24.866Z,11.95
2023-05-20T21:21:52.064Z,12.23
2023-05-20T21:24:20.036Z,12.60
2023-05-20T21:26:47.136Z,12.30
2023-05-20T21:29:14.109Z,11.98
2023-05-20T21:31:41.107Z,12.63
2023-05-20T21:34:08.286Z,11.45
2023-05-20T21:36:36.327Z,12.57
2023-05-20T21:39:03.394Z,12.02
2023-05-20T21:41:30.539Z,11.32
2023-05-20T21:43:57.839Z,11.15
2023-05-20T21:46:24.948Z,11.90
2023-05-20T21:48:52.358Z,12.65
2023-05-20T21:51:19.451Z,12.35
2023-05-20T21:53:46.683Z,11.95
2023-05-20T21:56:13.718Z,11.80
2023-05-20T21:58:41.928Z,11.57
2023-05-20T22:01:10.089Z,11.55
2023-05-20T22:03:38.386Z,11.82
2023-05-20T22:06:06.136Z,10.93
2023-05-20T22:08:36.406Z,11.80
2023-05-20T22:11:07.465Z,11.05
2023-05-20T22:13:35.835Z,11.80
2023-05-20T22:16:05.036Z,11.32
2023-05-20T22:18:32.694Z,11.23
2023-05-20T22:21:01.265Z,11.73
2023-05-20T22:23:28.919Z,12.00
2023-05-20T22:25:56.305Z,12.38
2023-05-20T22:28:23.823Z,11.65
2023-05-20T22:30:51.679Z,12.40
2023-05-20T22:33:18.825Z,11.93
2023-05-20T22:35:46.123Z,11.93
2023-05-20T22:38:13.352Z,11.35
2023-05-20T22:40:40.877Z,11.77
2023-05-20T22:43:07.989Z,12.73
2023-05-20T22:45:35.270Z,11.90
2023-05-20T22:48:03.830Z,12.60
2023-05-20T22:50:34.470Z,12.27
2023-05-20T22:53:02.836Z,12.40
2023-05-20T22:55:32.937Z,12.23
2023-05-20T22:58:00.023Z,12.23
2023-05-20T23:00:27.081Z,12.23
2023-05-20T23:02:54.110Z,12.43
2023-05-20T23:05:21.180Z,12.25
2023-05-20T23:07:48.288Z,12.57
2023-05-20T23:10:15.354Z,11.88
2023-05-20T23:12:43.789Z,13.20
2023-05-20T23:15:11.475Z,12.73
2023-05-20T23:17:39.741Z,12.55
2023-05-20T23:20:10.988Z,12.45
2023-05-20T23:22:38.362Z,13.32
2023-05-20T23:25:05.858Z,13.52
2023-05-20T23:27:33.097Z,14.40
2023-05-20T23:30:00.244Z,13.20
2023-05-20T23:32:27.268Z,15.23
2023-05-20T23:34:55.239Z,14.75
2023-05-20T23:37:22.589Z,15.02
2023-05-20T23:39:49.586Z,12.88
2023-05-20T23:42:16.825Z,14.18
2023-05-20T23:44:43.883Z,13.70
2023-05-20T23:47:13.618Z,12.75
2023-05-20T23:49:41.726Z,12.32
2023-05-20T23:52:08.769Z,13.43
2023-05-20T23:54:35.721Z,13.65
2023-05-20T23:57:02.686Z,13.65
2023-05-20T23:59:29.713Z,13.80
